Time;durP1;ratioP1;P1;durP2;ratioP2;P2;SDS_P1;SDS_P2;PMS_P1;PMS_P2;Temp;Humidity;BMP_temperature;BMP_pressure;BME280_temperature;BME280_humidity;BME280_pressure;Samples;Min_cycle;Max_cycle;Signal;HPM_P1;HPM_P2
2021/04/21 00:01:51;;;;;;;14.50;6.33;;;10.10;99.90;;;;;;5061100;28;20452;-79
2021/04/21 00:04:19;;;;;;;11.27;6.80;;;10.10;99.90;;;;;;5060325;28;20453;-79
2021/04/21 00:06:46;;;;;;;6.93;5.67;;;10.10;99.90;;;;;;5063791;28;20503;-79
2021/04/21 00:09:15;;;;;;;8.97;7.10;;;9.90;99.90;;;;;;5061078;28;20491;-79
2021/04/21 00:11:43;;;;;;;12.57;6.30;;;9.30;99.90;;;;;;5061372;28;20457;-79
2021/04/21 00:14:11;;;;;;;11.17;6.70;;;9.80;99.90;;;;;;5061516;28;20446;-80
2021/04/21 00:16:38;;;;;;;10.53;6.97;;;9.80;99.90;;;;;;5061927;28;20477;-79
2021/04/21 00:19:06;;;;;;;18.43;6.67;;;9.80;99.90;;;;;;5061582;28;20477;-79
2021/04/21 00:21:34;;;;;;;8.23;6.00;;;9.80;99.90;;;;;;5061413;28;20491;-79
2021/04/21 00:24:01;;;;;;;15.17;8.70;;;9.80;99.90;;;;;;5060946;28;20480;-79
2021/04/21 00:26:27;;;;;;;16.20;6.73;;;9.80;99.90;;;;;;5063342;28;20456;-79
2021/04/21 00:28:55;;;;;;;11.53;7.07;;;9.80;99.90;;;;;;5060365;28;20501;-79
2021/04/21 00:31:23;;;;;;;13.10;6.33;;;9.70;99.90;;;;;;5060865;28;20441;-78
2021/04/21 00:33:54;;;;;;;12.27;6.47;;;9.60;99.90;;;;;;5060023;28;20477;-78
2021/04/21 00:36:22;;;;;;;11.93;6.23;;;9.50;99.90;;;;;;5061903;28;20855;-77
2021/04/21 00:38:51;;;;;;;9.00;6.50;;;9.60;99.90;;;;;;5060806;28;20828;-77
2021/04/21 00:41:27;;;;;;;8.80;6.07;;;9.50;99.90;;;;;;5060578;28;20528;-78
2021/04/21 00:44:01;;;;;;;11.60;5.77;;;9.40;99.90;;;;;;5061355;28;20464;-78
2021/04/21 00:46:33;;;;;;;12.20;6.00;;;9.40;99.90;;;;;;5060611;28;20771;-79
2021/04/21 00:49:07;;;;;;;6.67;5.60;;;9.30;99.90;;;;;;5061722;28;20485;-79
2021/04/21 00:51:41;;;;;;;6.60;5.90;;;9.10;99.90;;;;;;5061784;28;20426;-79
2021/04/21 00:54:15;;;;;;;8.87;6.43;;;9.40;99.90;;;;;;5061034;28;20536;-78
2021/04/21 00:56:55;;;;;;;14.40;6.40;;;9.10;99.90;;;;;;5060128;28;20551;-80
2021/04/21 00:59:33;;;;;;;8.37;5.93;;;9.10;99.90;;;;;;5059811;28;20469;-78
2021/04/21 01:02:02;;;;;;;9.90;6.93;;;9.10;99.90;;;;;;5059083;28;20872;-78
2021/04/21 01:04:28;;;;;;;8.63;6.13;;;9.10;99.90;;;;;;5058787;28;20456;-79
2021/04/21 01:06:55;;;;;;;10.73;6.50;;;9.00;99.90;;;;;;5060637;28;20449;-79
2021/04/21 01:09:23;;;;;;;17.80;6.50;;;9.10;99.90;;;;;;5059774;28;20469;-79
2021/04/21 01:11:53;;;;;;;11.93;6.90;;;9.10;99.90;;;;;;5059963;28;20477;-80
2021/04/21 01:14:22;;;;;;;13.83;5.70;;;9.10;99.90;;;;;;5059779;28;20462;-79
2021/04/21 01:16:53;;;;;;;10.77;6.17;;;9.10;99.90;;;;;;5058704;28;20488;-78
2021/04/21 01:19:27;;;;;;;9.27;6.30;;;9.10;99.90;;;;;;5058930;28;20493;-79
2021/04/21 01:21:58;;;;;;;12.00;6.50;;;9.20;99.90;;;;;;5059035;28;20415;-79
2021/04/21 01:24:34;;;;;;;7.07;5.60;;;9.20;99.90;;;;;;5059798;28;20503;-79
2021/04/21 01:27:04;;;;;;;11.87;6.20;;;9.20;99.90;;;;;;5057504;28;20464;-78
2021/04/21 01:29:34;;;;;;;9.70;6.20;;;9.10;99.90;;;;;;5058557;28;20904;-78
2021/04/21 01:32:05;;;;;;;6.63;5.87;;;9.20;99.90;;;;;;5059836;28;20434;-79
2021/04/21 01:34:34;;;;;;;10.10;5.43;;;9.40;99.90;;;;;;5060074;28;20437;-79
2021/04/21 01:37:04;;;;;;;10.30;5.70;;;9.30;99.90;;;;;;5059585;28;20790;-80
2021/04/21 01:39:35;;;;;;;7.83;5.93;;;9.30;99.90;;;;;;5059948;28;20842;-79
2021/04/21 01:42:03;;;;;;;7.33;5.73;;;9.20;99.90;;;;;;5059709;28;20441;-80
2021/04/21 01:44:40;;;;;;;13.33;6.60;;;9.20;99.90;;;;;;5060243;28;20483;-79
2021/04/21 01:47:08;;;;;;;9.77;5.20;;;9.10;99.90;;;;;;5061334;28;20532;-79
2021/04/21 01:49:54;;;;;;;8.10;7.23;;;9.00;99.90;;;;;;5061388;28;20469;-79
2021/04/21 01:52:33;;;;;;;9.57;5.87;;;8.90;99.90;;;;;;5061347;28;20916;-78
2021/04/21 01:55:04;;;;;;;6.93;6.07;;;8.90;99.90;;;;;;5060397;28;20825;-78
2021/04/21 01:57:39;;;;;;;12.47;5.70;;;8.90;99.90;;;;;;5059970;28;20454;-79
2021/04/21 02:00:11;;;;;;;11.93;6.13;;;8.90;99.90;;;;;;5068751;28;20476;-79
2021/04/21 02:02:39;;;;;;;11.23;6.10;;;8.90;99.90;;;;;;5070933;28;20434;-79
2021/04/21 02:05:14;;;;;;;8.53;5.50;;;8.80;99.90;;;;;;5075692;28;20442;-78
2021/04/21 02:07:49;;;;;;;6.30;5.30;;;8.70;99.90;;;;;;5061914;28;20437;-79
2021/04/21 02:10:26;;;;;;;9.20;6.23;;;8.90;99.90;;;;;;5059039;28;20517;-80
2021/04/21 02:13:07;;;;;;;8.83;5.97;;;9.10;99.90;;;;;;5061068;28;20419;-79
2021/04/21 02:15:55;;;;;;;9.33;5.50;;;8.80;99.90;;;;;;5058884;28;20469;-78
2021/04/21 02:18:28;;;;;;;10.50;5.30;;;9.00;99.90;;;;;;5057759;28;20482;-79
2021/04/21 02:21:06;;;;;;;6.33;4.93;;;9.00;99.90;;;;;;5059777;28;20434;-79
2021/04/21 02:23:38;;;;;;;7.43;5.60;;;9.00;99.90;;;;;;5059838;28;20433;-79
2021/04/21 02:26:15;;;;;;;6.40;5.70;;;8.90;99.90;;;;;;5060176;28;20417;-79
2021/04/21 02:28:50;;;;;;;10.83;5.90;;;8.80;99.90;;;;;;5058416;28;20496;-78
2021/04/21 02:31:26;;;;;;;12.77;5.50;;;8.70;99.90;;;;;;5059561;28;20451;-78
2021/04/21 02:34:00;;;;;;;9.17;6.37;;;8.70;99.90;;;;;;5058857;28;20499;-79
2021/04/21 02:36:32;;;;;;;7.20;5.07;;;8.70;99.90;;;;;;5060158;28;21014;-78
2021/04/21 02:39:06;;;;;;;9.30;5.43;;;8.70;99.90;;;;;;5076395;28;20450;-78
2021/04/21 02:41:43;;;;;;;10.60;6.37;;;8.60;99.90;;;;;;5067083;28;20425;-78
2021/04/21 02:44:16;;;;;;;7.23;4.93;;;8.60;99.90;;;;;;5060014;28;20803;-78
2021/04/21 02:46:53;;;;;;;8.80;5.70;;;8.30;99.90;;;;;;5059737;28;20468;-78
2021/04/21 02:49:46;;;;;;;7.87;5.20;;;8.60;99.90;;;;;;5059023;28;20473;-78
2021/04/21 02:52:19;;;;;;;6.40;5.03;;;8.50;99.90;;;;;;5061649;28;20409;-78
2021/04/21 02:54:59;;;;;;;7.07;5.60;;;8.40;99.90;;;;;;5072080;28;20422;-78
2021/04/21 02:57:35;;;;;;;7.13;5.40;;;8.50;99.90;;;;;;5070949;28;20487;-78
2021/04/21 03:00:07;;;;;;;8.10;6.50;;;8.80;99.90;;;;;;5059193;28;20457;-78
2021/04/21 03:02:38;;;;;;;6.73;5.43;;;8.40;99.90;;;;;;5058577;28;20927;-78
2021/04/21 03:05:10;;;;;;;8.27;5.00;;;8.40;99.90;;;;;;5058877;28;20457;-78
2021/04/21 03:07:44;;;;;;;6.68;5.10;;;8.40;99.90;;;;;;5061704;28;20497;-78
2021/04/21 03:10:13;;;;;;;8.32;5.00;;;8.30;99.90;;;;;;5058622;28;20436;-78
2021/04/21 03:12:44;;;;;;;10.82;5.43;;;8.20;99.90;;;;;;5058520;28;20452;-79
2021/04/21 03:15:15;;;;;;;7.17;4.93;;;8.20;99.90;;;;;;5059277;28;20207;-78
2021/04/21 03:17:44;;;;;;;9.67;5.83;;;7.80;99.90;;;;;;5058657;28;20405;-78
2021/04/21 03:20:15;;;;;;;10.97;5.77;;;8.10;99.90;;;;;;5070577;28;20450;-78
2021/04/21 03:22:44;;;;;;;9.70;5.87;;;8.00;99.90;;;;;;5074342;28;20426;-79
2021/04/21 03:25:14;;;;;;;9.85;6.28;;;8.00;99.90;;;;;;5068716;28;20567;-79
2021/04/21 03:27:43;;;;;;;6.82;5.38;;;8.10;99.90;;;;;;5059413;28;20704;-79
2021/04/21 03:30:12;;;;;;;8.85;6.30;;;8.00;99.90;;;;;;5059413;28;20250;-79
2021/04/21 03:32:43;;;;;;;9.30;6.20;;;8.00;99.90;;;;;;5058045;28;20807;-79
2021/04/21 03:35:12;;;;;;;8.82;6.10;;;7.90;99.90;;;;;;5061650;28;20447;-78
2021/04/21 03:37:47;;;;;;;10.07;5.70;;;7.90;99.90;;;;;;5062593;28;20203;-79
2021/04/21 03:40:14;;;;;;;7.33;5.50;;;7.80;99.90;;;;;;5062279;28;21003;-79
2021/04/21 03:42:41;;;;;;;10.30;5.50;;;8.00;99.90;;;;;;5062431;28;20442;-79
2021/04/21 03:45:08;;;;;;;9.55;5.28;;;8.00;99.90;;;;;;5062057;28;20445;-78
2021/04/21 03:47:35;;;;;;;8.27;5.70;;;8.40;99.90;;;;;;5063679;28;20207;-79
2021/04/21 03:50:04;;;;;;;6.57;4.97;;;8.00;99.90;;;;;;5088211;22;20235;-79
2021/04/21 03:52:34;;;;;;;11.43;6.90;;;8.00;99.90;;;;;;5058070;28;20653;-78
2021/04/21 03:55:00;;;;;;;8.18;4.95;;;7.90;99.90;;;;;;5058220;28;20445;-78
2021/04/21 03:57:29;;;;;;;8.13;5.25;;;8.00;99.90;;;;;;5057145;28;20230;-78
2021/04/21 03:59:58;;;;;;;6.72;5.05;;;8.10;99.90;;;;;;5056761;28;20262;-78
2021/04/21 04:02:26;;;;;;;7.00;6.05;;;8.10;99.90;;;;;;5057048;28;20217;-78
2021/04/21 04:04:59;;;;;;;6.35;4.82;;;8.00;99.90;;;;;;5056257;28;20207;-78
2021/04/21 04:07:28;;;;;;;7.65;5.20;;;7.90;99.90;;;;;;5056198;28;20526;-79
2021/04/21 04:09:58;;;;;;;8.13;5.63;;;7.90;99.90;;;;;;5057792;28;20588;-80
2021/04/21 04:12:26;;;;;;;9.10;5.57;;;7.80;99.90;;;;;;5059088;28;20210;-79
2021/04/21 04:14:55;;;;;;;7.65;5.50;;;8.10;99.90;;;;;;5058241;28;20207;-79
2021/04/21 04:17:22;;;;;;;7.07;4.83;;;8.10;99.90;;;;;;5058222;28;20233;-78
2021/04/21 04:19:50;;;;;;;7.70;5.25;;;8.00;99.90;;;;;;5057054;28;20519;-79
2021/04/21 04:22:18;;;;;;;10.88;5.32;;;7.90;99.90;;;;;;5056725;28;20677;-78
2021/04/21 04:24:48;;;;;;;10.07;5.40;;;8.20;99.90;;;;;;5059401;28;20748;-77
2021/04/21 04:27:16;;;;;;;11.57;5.68;;;7.90;99.90;;;;;;5057818;28;20208;-78
2021/04/21 04:29:43;;;;;;;10.35;5.72;;;7.90;99.90;;;;;;5056063;28;20670;-79
2021/04/21 04:32:13;;;;;;;12.48;6.28;;;8.10;99.90;;;;;;5056540;28;20210;-78
2021/04/21 04:34:43;;;;;;;6.93;5.68;;;8.10;99.90;;;;;;5056660;28;20203;-78
2021/04/21 04:37:11;;;;;;;6.15;5.13;;;7.70;99.90;;;;;;5056947;28;20234;-78
2021/04/21 04:39:38;;;;;;;7.78;5.75;;;7.70;99.90;;;;;;5056805;28;20229;-78
2021/04/21 04:42:05;;;;;;;9.75;6.63;;;8.10;99.90;;;;;;5057201;28;20669;-78
2021/04/21 04:44:35;;;;;;;21.42;7.00;;;7.90;99.90;;;;;;5055723;28;20207;-79
2021/04/21 04:47:05;;;;;;;14.80;7.27;;;7.90;99.90;;;;;;5056957;28;20554;-78
2021/04/21 04:49:37;;;;;;;7.10;6.32;;;7.70;99.90;;;;;;5056581;28;20473;-78
2021/04/21 04:52:06;;;;;;;9.90;6.43;;;7.90;99.90;;;;;;5055699;28;20188;-77
2021/04/21 04:54:35;;;;;;;10.65;6.20;;;8.00;99.90;;;;;;5055925;28;20209;-79
2021/04/21 04:57:03;;;;;;;8.80;5.40;;;8.10;99.90;;;;;;5056241;28;20219;-79
2021/04/21 04:59:30;;;;;;;11.70;6.70;;;8.40;99.90;;;;;;5056022;28;20250;-79
2021/04/21 05:02:01;;;;;;;8.10;5.77;;;8.10;99.90;;;;;;5056384;28;20207;-78
2021/04/21 05:04:35;;;;;;;10.13;6.63;;;8.20;99.90;;;;;;5057044;28;20495;-78
2021/04/21 05:07:05;;;;;;;6.57;5.30;;;8.30;99.90;;;;;;5057190;28;20495;-78
2021/04/21 05:09:44;;;;;;;9.27;5.90;;;8.30;99.90;;;;;;5056732;28;20444;-79
2021/04/21 05:12:11;;;;;;;9.83;6.30;;;8.30;99.90;;;;;;5058970;28;20427;-78
2021/04/21 05:14:40;;;;;;;14.03;7.23;;;8.30;99.90;;;;;;5056936;28;20441;-79
2021/04/21 05:18:02;;;;;;;9.37;6.37;;;8.40;99.90;;;;;;5056040;28;20887;-78
2021/04/21 05:21:05;;;;;;;10.43;5.73;;;8.30;99.90;;;;;;5056282;28;20849;-78
2021/04/21 05:24:22;;;;;;;11.57;7.00;;;8.60;99.90;;;;;;5056487;28;20433;-79
2021/04/21 05:27:35;;;;;;;13.63;6.70;;;8.80;99.90;;;;;;5054837;28;20238;-78
2021/04/21 05:30:12;;;;;;;9.20;6.37;;;8.70;99.90;;;;;;5055711;28;20469;-79
2021/04/21 05:33:30;;;;;;;15.13;9.33;;;8.70;99.90;;;;;;5056945;28;20405;-78
2021/04/21 05:36:37;;;;;;;10.50;5.83;;;8.90;99.90;;;;;;5058381;28;20469;-79
2021/04/21 05:39:59;;;;;;;8.40;6.80;;;8.90;99.90;;;;;;5056246;28;20500;-79
2021/04/21 05:43:22;;;;;;;8.80;7.37;;;9.10;99.90;;;;;;5056733;28;20426;-78
2021/04/21 05:46:36;;;;;;;18.43;7.80;;;9.10;99.90;;;;;;5020622;28;20488;-79
2021/04/21 05:49:31;;;;;;;14.50;7.23;;;9.20;99.90;;;;;;5058111;28;20473;-79
2021/04/21 05:52:13;;;;;;;10.97;8.17;;;9.30;99.90;;;;;;5056977;28;20429;-79
2021/04/21 05:55:03;;;;;;;11.83;7.97;;;9.40;99.90;;;;;;5056904;28;20481;-78
2021/04/21 05:58:17;;;;;;;15.17;7.77;;;9.20;99.90;;;;;;5055528;28;20422;-79
2021/04/21 06:01:07;;;;;;;13.57;9.13;;;9.50;99.90;;;;;;4993518;28;20460;-79
2021/04/21 06:03:37;;;;;;;8.67;7.67;;;9.60;99.90;;;;;;4994950;28;20456;-78
2021/04/21 06:06:05;;;;;;;8.60;6.90;;;9.50;99.90;;;;;;5032956;28;20452;-79
2021/04/21 06:08:32;;;;;;;14.37;7.97;;;9.70;99.90;;;;;;5056443;28;20449;-78
2021/04/21 06:10:59;;;;;;;12.77;7.60;;;10.20;99.90;;;;;;5056608;28;21051;-79
2021/04/21 06:13:27;;;;;;;13.87;7.33;;;9.90;99.90;;;;;;5056699;28;20449;-80
2021/04/21 06:15:53;;;;;;;16.63;7.87;;;9.80;99.90;;;;;;5056117;28;21216;-80
2021/04/21 06:18:22;;;;;;;13.17;7.30;;;9.80;99.90;;;;;;5055945;28;20820;-78
2021/04/21 06:20:49;;;;;;;12.63;7.33;;;;;;;;;;5056372;28;21007;-79
2021/04/21 06:23:18;;;;;;;11.53;8.37;;;10.00;99.90;;;;;;5055446;28;20453;-78
2021/04/21 06:25:46;;;;;;;16.10;13.10;;;9.70;99.90;;;;;;5055990;28;20456;-78
2021/04/21 06:28:17;;;;;;;14.17;7.87;;;10.00;99.90;;;;;;5056734;28;20446;-79
2021/04/21 06:30:46;;;;;;;10.80;7.60;;;10.10;99.90;;;;;;5060625;28;20883;-78
2021/04/21 06:33:13;;;;;;;12.27;7.07;;;10.00;99.90;;;;;;5057335;28;20479;-77
2021/04/21 06:35:40;;;;;;;11.37;7.63;;;10.40;99.90;;;;;;5059705;28;20571;-78
2021/04/21 06:38:08;;;;;;;17.00;8.63;;;10.40;99.90;;;;;;5057989;28;20544;-79
2021/04/21 06:40:37;;;;;;;11.93;9.03;;;10.60;99.90;;;;;;5060302;28;20633;-79
2021/04/21 06:43:04;;;;;;;13.93;8.73;;;10.40;99.90;;;;;;5057399;28;20458;-79
2021/04/21 06:45:33;;;;;;;16.97;9.40;;;10.70;99.90;;;;;;5056017;28;20441;-79
2021/04/21 06:48:02;;;;;;;11.40;8.60;;;10.50;99.90;;;;;;5058451;28;20437;-79
2021/04/21 06:50:30;;;;;;;17.60;9.00;;;10.90;99.90;;;;;;5060808;28;20482;-79
2021/04/21 06:53:02;;;;;;;14.90;9.37;;;10.80;99.90;;;;;;5055447;28;20918;-78
2021/04/21 06:55:29;;;;;;;25.50;9.80;;;10.80;99.90;;;;;;5058299;28;20509;-79
2021/04/21 06:57:59;;;;;;;17.87;10.07;;;11.10;99.90;;;;;;5059202;28;20446;-78
2021/04/21 07:00:28;;;;;;;13.43;8.23;;;11.10;99.90;;;;;;5058782;28;20465;-78
2021/04/21 07:02:55;;;;;;;10.83;8.23;;;11.20;99.90;;;;;;5058650;28;20454;-78
2021/04/21 07:05:31;;;;;;;19.13;8.77;;;11.40;99.90;;;;;;5057791;28;20923;-78
2021/04/21 07:08:06;;;;;;;12.73;9.07;;;11.40;99.90;;;;;;5057559;28;20473;-78
2021/04/21 07:10:33;;;;;;;14.90;8.30;;;11.40;99.90;;;;;;5059671;28;20471;-78
2021/04/21 07:13:02;;;;;;;13.87;9.30;;;11.30;99.90;;;;;;5059959;28;20453;-78
2021/04/21 07:15:29;;;;;;;19.20;9.60;;;11.30;99.90;;;;;;5060167;28;20485;-78
2021/04/21 07:17:59;;;;;;;12.40;8.40;;;11.50;99.90;;;;;;5059230;28;20551;-79
2021/04/21 07:20:26;;;;;;;10.63;8.27;;;11.50;99.90;;;;;;5058977;28;20476;-78
2021/04/21 07:22:53;;;;;;;12.37;8.00;;;11.70;99.90;;;;;;5058664;28;20457;-79
2021/04/21 07:25:20;;;;;;;18.30;8.87;;;11.60;99.90;;;;;;5059594;28;20536;-78
2021/04/21 07:27:52;;;;;;;9.03;7.40;;;11.60;99.90;;;;;;5062324;28;20453;-78
2021/04/21 07:30:27;;;;;;;15.47;9.13;;;11.90;99.90;;;;;;5058557;28;20501;-77
2021/04/21 07:32:53;;;;;;;11.90;7.53;;;12.00;99.90;;;;;;5059521;28;20448;-77
2021/04/21 07:35:22;;;;;;;10.67;7.57;;;11.90;99.90;;;;;;5057699;28;20456;-78
2021/04/21 07:37:50;;;;;;;11.97;6.50;;;11.90;99.90;;;;;;5058962;28;20449;-78
2021/04/21 07:40:38;;;;;;;9.07;6.53;;;12.30;99.90;;;;;;5057777;28;20473;-77
2021/04/21 07:43:10;;;;;;;10.87;6.83;;;12.40;99.90;;;;;;5058770;28;20429;-78
2021/04/21 07:45:52;;;;;;;7.03;6.40;;;12.50;99.90;;;;;;5060632;28;20529;-79
2021/04/21 07:48:40;;;;;;;9.73;6.67;;;12.60;99.90;;;;;;5060988;28;20441;-76
2021/04/21 07:51:29;;;;;;;8.87;6.80;;;12.60;99.90;;;;;;5058340;28;20513;-79
2021/04/21 07:54:00;;;;;;;11.63;6.80;;;12.50;99.90;;;;;;5059187;28;20832;-79
2021/04/21 07:56:33;;;;;;;14.30;7.23;;;12.80;99.90;;;;;;5056973;28;20472;-79
2021/04/21 07:59:12;;;;;;;11.40;6.20;;;12.90;99.90;;;;;;5056887;28;20469;-77
2021/04/21 08:01:39;;;;;;;15.40;7.10;;;12.90;99.90;;;;;;5057983;28;20476;-79
2021/04/21 08:04:19;;;;;;;11.70;6.30;;;13.10;99.90;;;;;;5059348;28;20793;-78
2021/04/21 08:06:47;;;;;;;8.67;6.87;;;13.20;99.90;;;;;;5058636;28;20432;-78
2021/04/21 08:09:13;;;;;;;8.90;6.10;;;13.30;99.90;;;;;;5064485;28;20470;-81
2021/04/21 08:11:39;;;;;;;9.63;6.87;;;13.30;99.90;;;;;;5071966;28;20495;-80
2021/04/21 08:14:06;;;;;;;10.43;7.00;;;;;;;;;;5064703;28;20438;-80
2021/04/21 08:16:35;;;;;;;13.53;7.60;;;13.40;99.90;;;;;;5064342;28;20477;-80
2021/04/21 08:19:12;;;;;;;9.50;6.77;;;13.40;99.90;;;;;;5063675;28;20454;-80
2021/04/21 08:21:40;;;;;;;18.50;12.10;;;13.70;99.90;;;;;;5063556;28;20430;-81
2021/04/21 08:24:07;;;;;;;13.10;7.67;;;13.70;99.90;;;;;;5065563;28;20442;-81
2021/04/21 08:26:33;;;;;;;7.17;6.27;;;13.30;99.90;;;;;;5063399;28;20464;-80
2021/04/21 08:29:00;;;;;;;16.60;7.00;;;13.80;99.90;;;;;;5061160;28;20476;-80
2021/04/21 08:31:28;;;;;;;10.13;7.30;;;13.80;99.90;;;;;;5063125;28;20441;-80
2021/04/21 08:33:55;;;;;;;8.07;6.50;;;13.60;99.90;;;;;;5071277;28;20457;-80
2021/04/21 08:36:22;;;;;;;15.57;6.70;;;13.70;99.90;;;;;;5074653;28;20484;-80
2021/04/21 08:38:49;;;;;;;16.77;8.57;;;13.60;99.90;;;;;;5074929;28;20448;-80
2021/04/21 08:41:16;;;;;;;12.87;7.13;;;13.90;97.20;;;;;;5073664;28;20767;-80
2021/04/21 08:43:45;;;;;;;10.50;6.70;;;14.00;97.50;;;;;;5072742;28;20444;-80
2021/04/21 08:46:12;;;;;;;12.03;7.20;;;14.00;99.90;;;;;;5072410;28;20500;-80
2021/04/21 08:48:40;;;;;;;13.50;7.40;;;13.90;99.90;;;;;;5065744;28;20454;-79
2021/04/21 08:51:07;;;;;;;7.97;5.90;;;14.10;98.10;;;;;;5065902;28;20437;-80
2021/04/21 08:53:36;;;;;;;10.20;6.27;;;14.10;95.80;;;;;;5066438;28;20450;-80
2021/04/21 08:56:04;;;;;;;12.93;7.73;;;14.10;96.50;;;;;;5063350;28;20481;-79
2021/04/21 08:58:32;;;;;;;12.13;6.13;;;14.30;96.30;;;;;;5062592;28;20449;-79
2021/04/21 09:00:58;;;;;;;41.07;12.70;;;;;;;;;;5096352;22;20493;-82
2021/04/21 09:03:25;;;;;;;10.57;6.77;;;;;;;;;;5065813;28;20919;-84
2021/04/21 09:05:51;;;;;;;10.30;6.37;;;;;;;;;;5064353;28;20835;-83
2021/04/21 09:08:20;;;;;;;13.73;7.10;;;14.60;97.30;;;;;;5064973;28;20448;-84
2021/04/21 09:10:48;;;;;;;10.40;5.70;;;;;;;;;;5064602;28;20469;-83
2021/04/21 09:13:14;;;;;;;8.10;6.03;;;14.70;95.20;;;;;;5064698;28;20511;-84
2021/04/21 09:15:42;;;;;;;10.30;6.27;;;15.10;99.90;;;;;;5065523;28;20511;-83
2021/04/21 09:18:09;;;;;;;8.03;6.07;;;;;;;;;;5063607;28;20460;-83
2021/04/21 09:20:44;;;;;;;10.90;7.00;;;15.00;95.30;;;;;;5063380;28;20466;-84
2021/04/21 09:23:13;;;;;;;9.47;6.40;;;15.10;96.30;;;;;;5064146;28;20453;-84
2021/04/21 09:25:41;;;;;;;13.80;7.20;;;15.00;95.00;;;;;;5063334;28;20664;-84
2021/04/21 09:28:09;;;;;;;21.47;6.90;;;15.10;95.30;;;;;;5063590;28;20449;-84
2021/04/21 09:30:37;;;;;;;9.30;8.40;;;15.40;99.90;;;;;;5075569;28;20462;-80
2021/04/21 09:33:05;;;;;;;11.10;8.60;;;15.60;99.90;;;;;;5065180;28;20450;-80
2021/04/21 09:35:33;;;;;;;9.20;7.20;;;15.10;96.80;;;;;;5061227;28;20445;-80
2021/04/21 09:38:04;;;;;;;10.03;7.80;;;15.20;97.50;;;;;;5059725;28;20446;-80
2021/04/21 09:40:40;;;;;;;10.67;9.47;;;15.10;97.30;;;;;;5061908;28;20465;-80
2021/04/21 09:43:09;;;;;;;10.50;6.50;;;15.40;96.60;;;;;;5064100;28;20433;-81
2021/04/21 09:45:42;;;;;;;9.50;7.70;;;15.80;99.90;;;;;;5062667;28;20453;-80
2021/04/21 09:48:13;;;;;;;14.30;6.83;;;15.90;96.30;;;;;;5065343;28;20414;-80
2021/04/21 11:48:20;;;;;;;8.83;5.90;;;17.50;89.20;;;;;;4987776;28;20495;-87
2021/04/21 12:17:39;;;;;;;9.33;5.70;;;;;;;;;;4943273;29;20643;-86
2021/04/21 12:20:27;;;;;;;4.70;4.37;;;;;;;;;;5058841;22;20502;-87
2021/04/21 12:43:27;;;;;;;7.57;4.87;;;17.30;80.70;;;;;;3386188;26;20517;-87
2021/04/21 12:46:31;;;;;;;4.00;3.53;;;17.40;70.60;;;;;;4979131;28;20469;-87
2021/04/21 13:57:06;;;;;;;4.87;4.37;;;17.00;74.20;;;;;;3081542;22;20480;-88
2021/04/21 14:09:16;;;;;;;8.63;4.33;;;16.90;75.50;;;;;;5053495;22;21007;-80
2021/04/21 14:11:42;;;;;;;6.83;3.60;;;16.20;73.40;;;;;;5066561;28;20538;-79
2021/04/21 14:14:09;;;;;;;6.33;3.67;;;17.10;77.70;;;;;;5065946;28;20963;-79
2021/04/21 14:16:36;;;;;;;6.63;3.83;;;17.10;76.00;;;;;;5067543;28;20446;-79
2021/04/21 14:19:03;;;;;;;5.60;4.40;;;16.80;74.00;;;;;;5065451;28;20457;-80
2021/04/21 14:21:29;;;;;;;5.07;4.50;;;16.90;75.90;;;;;;5065229;28;20437;-79
2021/04/21 14:23:56;;;;;;;5.80;5.20;;;17.40;77.50;;;;;;5060832;28;20779;-80
2021/04/21 14:26:22;;;;;;;7.17;4.47;;;16.90;76.90;;;;;;5063246;28;20481;-80
2021/04/21 14:28:48;;;;;;;4.83;4.33;;;16.80;78.50;;;;;;5068556;28;20469;-80
2021/04/21 14:31:14;;;;;;;4.93;3.50;;;16.80;80.80;;;;;;5073555;28;20443;-80
2021/04/21 14:33:40;;;;;;;11.77;5.30;;;16.80;79.20;;;;;;5070020;28;20445;-80
2021/04/21 14:36:12;;;;;;;4.20;3.80;;;17.00;80.50;;;;;;5066509;28;20495;-80
2021/04/21 14:38:41;;;;;;;7.07;4.50;;;16.90;95.60;;;;;;5066580;28;20440;-81
2021/04/21 14:41:07;;;;;;;6.00;4.10;;;;;;;;;;5066962;28;20206;-81
2021/04/21 14:43:34;;;;;;;10.80;6.67;;;16.90;69.00;;;;;;5067041;28;20448;-79
2021/04/21 14:46:00;;;;;;;4.03;3.73;;;17.00;67.80;;;;;;5065682;28;20484;-79
2021/04/21 14:48:26;;;;;;;10.03;3.37;;;16.20;99.90;;;;;;5066684;28;20473;-80
2021/04/21 14:50:52;;;;;;;7.43;4.10;;;17.00;96.60;;;;;;5066917;28;20452;-81
2021/04/21 14:53:19;;;;;;;11.00;4.13;;;16.70;68.50;;;;;;5066501;28;20968;-80
2021/04/21 14:55:46;;;;;;;36.23;22.03;;;16.60;65.90;;;;;;5066445;28;20469;-80
2021/04/21 14:58:12;;;;;;;4.73;4.27;;;16.50;95.90;;;;;;5067781;28;20473;-79
2021/04/21 15:00:38;;;;;;;14.23;9.40;;;16.70;69.40;;;;;;5070475;28;20450;-79
2021/04/21 15:03:04;;;;;;;7.47;5.20;;;16.80;71.30;;;;;;5065878;28;20532;-80
2021/04/21 15:05:30;;;;;;;6.97;4.20;;;16.70;69.00;;;;;;5066529;28;20441;-79
2021/04/21 15:07:59;;;;;;;7.88;5.00;;;16.60;99.30;;;;;;5065804;28;20510;-81
2021/04/21 15:10:26;;;;;;;6.50;5.00;;;16.90;70.30;;;;;;5065516;28;20187;-80
2021/04/21 15:12:53;;;;;;;8.00;4.60;;;16.70;68.70;;;;;;5065509;28;20445;-80
2021/04/21 15:15:21;;;;;;;4.93;4.43;;;16.60;68.20;;;;;;5066392;28;21010;-80
2021/04/21 15:17:48;;;;;;;6.90;4.63;;;16.50;68.40;;;;;;5064925;28;20461;-80
2021/04/21 15:20:15;;;;;;;6.23;4.10;;;16.60;70.10;;;;;;5064803;28;20455;-81
2021/04/21 15:22:42;;;;;;;7.70;4.47;;;16.80;99.90;;;;;;5064832;28;20963;-80
2021/04/21 15:25:10;;;;;;;10.37;4.83;;;16.80;99.90;;;;;;5064960;28;20535;-80
2021/04/21 15:27:37;;;;;;;5.33;4.50;;;16.50;66.90;;;;;;5065320;28;20493;-80
2021/04/21 15:30:05;;;;;;;12.10;5.43;;;16.60;67.70;;;;;;5067374;28;20453;-79
2021/04/21 15:32:32;;;;;;;5.53;5.07;;;16.60;68.40;;;;;;5069184;28;20452;-80
2021/04/21 15:34:58;;;;;;;5.90;5.00;;;16.40;67.40;;;;;;5068079;28;20445;-82
2021/04/21 15:37:25;;;;;;;11.70;5.90;;;16.40;96.50;;;;;;5069270;28;20504;-81
2021/04/21 15:39:52;;;;;;;5.83;5.27;;;16.40;69.20;;;;;;5068894;28;20450;-80
2021/04/21 15:42:18;;;;;;;7.77;6.00;;;16.60;97.70;;;;;;5068626;28;20441;-80
2021/04/21 15:44:48;;;;;;;8.07;6.00;;;16.40;70.10;;;;;;5067729;28;20446;-78
2021/04/21 15:47:14;;;;;;;8.20;6.10;;;16.40;97.90;;;;;;5069377;28;20536;-80
2021/04/21 15:49:40;;;;;;;8.03;6.13;;;16.10;98.40;;;;;;5068705;28;20483;-81
2021/04/21 15:52:07;;;;;;;7.47;5.50;;;15.80;98.90;;;;;;5068825;28;20457;-81
2021/04/21 15:54:33;;;;;;;9.90;6.33;;;15.90;73.20;;;;;;5068115;28;20449;-80
2021/04/21 15:57:02;;;;;;;11.90;6.77;;;16.20;74.20;;;;;;5068226;28;20630;-80
2021/04/21 15:59:28;;;;;;;10.43;6.73;;;16.20;75.00;;;;;;5068657;28;20469;-79
2021/04/21 16:01:55;;;;;;;11.30;6.77;;;16.10;74.20;;;;;;5070698;28;20449;-79
2021/04/21 16:04:22;;;;;;;9.20;6.53;;;16.20;75.80;;;;;;5067256;28;20437;-81
2021/04/21 16:06:53;;;;;;;9.43;6.90;;;15.60;99.90;;;;;;5067907;28;20459;-80
2021/04/21 16:09:19;;;;;;;8.83;6.90;;;;;;;;;;5068818;28;20480;-80
2021/04/21 16:11:46;;;;;;;8.10;6.73;;;15.70;78.00;;;;;;5070140;28;20453;-81
2021/04/21 16:14:13;;;;;;;13.33;7.47;;;15.70;80.30;;;;;;5070741;28;20437;-80
2021/04/21 16:16:39;;;;;;;9.40;7.90;;;15.60;79.40;;;;;;5072633;28;20496;-78
2021/04/21 16:19:06;;;;;;;10.23;7.93;;;15.50;80.00;;;;;;5071306;28;20491;-80
2021/04/21 16:21:32;;;;;;;8.25;7.28;;;15.50;99.90;;;;;;5069776;28;20550;-81
2021/04/21 16:23:59;;;;;;;11.23;7.33;;;;;;;;;;5069230;28;20214;-79
2021/04/21 16:26:25;;;;;;;8.75;6.28;;;15.40;78.90;;;;;;5069279;28;20434;-79
2021/04/21 16:28:51;;;;;;;7.57;6.30;;;15.30;78.80;;;;;;5071867;28;20234;-79
2021/04/21 16:31:18;;;;;;;7.13;6.40;;;;;;;;;;5073161;28;20463;-78
2021/04/21 16:33:44;;;;;;;8.07;5.80;;;14.90;99.90;;;;;;5073975;28;20445;-80
2021/04/21 16:36:11;;;;;;;8.50;7.60;;;15.20;75.90;;;;;;5071535;28;20515;-79
2021/04/21 16:38:37;;;;;;;9.10;6.77;;;15.20;76.50;;;;;;5070972;28;20476;-79
2021/04/21 16:41:04;;;;;;;7.80;6.00;;;15.20;77.90;;;;;;5067721;28;20445;-79
2021/04/21 16:43:32;;;;;;;11.70;6.87;;;15.20;99.90;;;;;;5069228;28;20801;-79
2021/04/21 16:45:58;;;;;;;12.90;6.60;;;15.40;99.90;;;;;;5071038;28;20453;-80
2021/04/21 16:48:24;;;;;;;13.10;6.73;;;15.00;79.80;;;;;;5070700;28;20465;-79
2021/04/21 16:50:50;;;;;;;11.60;8.60;;;14.80;99.90;;;;;;5068090;28;20456;-79
2021/04/21 16:53:18;;;;;;;10.27;8.47;;;14.90;81.00;;;;;;5068753;28;20461;-80
2021/04/21 16:55:45;;;;;;;11.70;9.83;;;15.00;99.90;;;;;;5068666;28;20540;-79
2021/04/21 16:58:14;;;;;;;12.37;8.63;;;15.20;99.90;;;;;;5068464;28;20489;-80
2021/04/21 17:00:41;;;;;;;11.97;8.60;;;14.70;83.70;;;;;;5067830;28;20454;-80
2021/04/21 17:03:08;;;;;;;11.37;8.03;;;14.80;84.90;;;;;;5067763;28;20464;-80
2021/04/21 17:05:35;;;;;;;10.93;8.43;;;14.20;99.90;;;;;;5067179;28;20445;-80
2021/04/21 17:08:03;;;;;;;13.77;9.73;;;14.60;87.50;;;;;;5065654;28;20829;-79
2021/04/21 17:10:30;;;;;;;13.97;10.47;;;14.60;88.20;;;;;;5066788;28;20446;-80
2021/04/21 17:12:57;;;;;;;15.20;10.50;;;14.20;99.90;;;;;;5065983;28;20453;-80
2021/04/21 17:15:23;;;;;;;15.23;10.30;;;14.30;90.90;;;;;;5067975;28;20456;-80